Time;durP1;ratioP1;P1;durP2;ratioP2;P2;SDS_P1;SDS_P2;PMS_P1;PMS_P2;Temp;Humidity;BMP_temperature;BMP_pressure;BME280_temperature;BME280_humidity;BME280_pressure;Samples;Min_cycle;Max_cycle;Signal;HPM_P1;HPM_P2
2021/07/05 00:02:08;;;;;;;10.95;7.18;;;15.30;90.80;;;;;;5095933;28;20028;-49
2021/07/05 00:04:34;;;;;;;8.05;6.13;;;15.30;90.80;;;;;;5095792;28;20034;-49
2021/07/05 00:07:00;;;;;;;7.38;6.55;;;15.30;90.80;;;;;;5095865;28;20028;-46
2021/07/05 00:09:26;;;;;;;8.13;6.85;;;15.30;90.70;;;;;;5095763;28;20077;-51
2021/07/05 00:11:52;;;;;;;8.07;6.63;;;15.30;90.90;;;;;;5077555;28;20031;-50
2021/07/05 00:14:17;;;;;;;6.82;6.10;;;15.30;90.80;;;;;;5095467;28;20024;-46
2021/07/05 00:16:43;;;;;;;9.00;7.07;;;15.30;91.00;;;;;;5095415;28;20031;-48
2021/07/05 00:19:09;;;;;;;7.68;5.72;;;15.20;91.30;;;;;;5095344;28;20024;-47
2021/07/05 00:21:35;;;;;;;10.35;6.10;;;15.20;91.20;;;;;;5095321;28;20369;-46
2021/07/05 00:24:00;;;;;;;11.80;5.78;;;15.10;91.20;;;;;;5095455;28;20031;-46
2021/07/05 00:26:26;;;;;;;8.55;6.70;;;15.10;91.30;;;;;;5095478;28;20020;-47
2021/07/05 00:28:52;;;;;;;13.85;7.10;;;15.10;91.30;;;;;;5077010;28;20020;-49
2021/07/05 00:31:18;;;;;;;7.35;6.32;;;15.10;91.40;;;;;;5095036;28;20028;-46
2021/07/05 00:33:43;;;;;;;8.57;6.35;;;15.10;91.20;;;;;;5095329;28;20512;-48
2021/07/05 00:36:09;;;;;;;9.50;6.53;;;15.00;91.30;;;;;;5095308;28;20043;-51
2021/07/05 00:38:35;;;;;;;11.73;6.90;;;15.00;91.40;;;;;;5094934;28;20456;-46
2021/07/05 00:41:00;;;;;;;17.27;7.80;;;15.20;91.00;;;;;;5095258;28;20095;-46
2021/07/05 00:43:26;;;;;;;7.07;6.30;;;15.30;90.50;;;;;;5095196;28;20120;-47
2021/07/05 00:45:52;;;;;;;7.07;6.22;;;15.20;90.00;;;;;;5095080;28;20097;-50
2021/07/05 00:48:17;;;;;;;10.27;6.93;;;15.20;90.50;;;;;;5095168;28;20099;-46
2021/07/05 00:50:43;;;;;;;7.13;6.22;;;15.20;90.10;;;;;;5076950;28;20020;-51
2021/07/05 00:53:09;;;;;;;6.85;5.80;;;15.30;90.10;;;;;;5094836;28;20024;-50
2021/07/05 00:55:34;;;;;;;11.15;5.90;;;15.10;90.10;;;;;;5094088;28;20387;-51
2021/07/05 00:58:01;;;;;;;7.10;5.45;;;15.10;90.50;;;;;;5094712;28;20024;-51
2021/07/05 01:00:28;;;;;;;7.25;5.50;;;15.00;90.90;;;;;;5094617;28;20483;-52
2021/07/05 01:02:53;;;;;;;7.55;6.75;;;15.00;91.00;;;;;;5076620;28;20093;-47
2021/07/05 01:05:21;;;;;;;10.43;5.93;;;15.00;91.10;;;;;;5094576;28;20028;-46
2021/07/05 01:07:47;;;;;;;7.68;5.60;;;15.00;91.20;;;;;;5076570;28;20012;-46
2021/07/05 01:10:15;;;;;;;9.85;6.40;;;15.00;91.20;;;;;;5094180;28;20028;-49
2021/07/05 01:12:41;;;;;;;7.18;6.07;;;15.00;91.20;;;;;;5094066;28;20020;-45
2021/07/05 01:15:11;;;;;;;7.50;5.38;;;15.00;91.10;;;;;;5094132;28;20024;-48
2021/07/05 01:17:38;;;;;;;7.63;6.30;;;15.00;91.00;;;;;;5094074;28;20024;-46
2021/07/05 01:20:05;;;;;;;13.73;5.93;;;15.00;91.10;;;;;;5059353;28;20028;-47
2021/07/05 01:22:31;;;;;;;7.57;6.10;;;14.90;91.00;;;;;;5093840;28;20399;-47
2021/07/05 01:24:57;;;;;;;6.80;5.63;;;14.90;91.20;;;;;;5094401;28;20036;-49
2021/07/05 01:27:23;;;;;;;11.52;5.97;;;14.90;91.20;;;;;;5093823;28;20035;-50
2021/07/05 01:29:49;;;;;;;11.07;6.18;;;14.80;91.40;;;;;;5094355;28;20464;-47
2021/07/05 01:32:15;;;;;;;9.93;7.15;;;14.80;91.50;;;;;;5075809;28;20032;-48
2021/07/05 01:34:41;;;;;;;9.57;6.35;;;14.80;91.50;;;;;;5075844;28;20047;-46
2021/07/05 01:37:09;;;;;;;7.13;5.75;;;14.80;91.40;;;;;;5094197;28;20078;-47
2021/07/05 01:39:35;;;;;;;8.02;5.65;;;14.70;91.50;;;;;;5094267;28;20028;-47
2021/07/05 01:42:01;;;;;;;8.20;5.65;;;14.70;91.60;;;;;;5094135;28;20425;-46
2021/07/05 01:44:27;;;;;;;7.57;6.65;;;14.70;91.70;;;;;;5075997;28;20052;-48
2021/07/05 01:46:53;;;;;;;8.80;5.55;;;14.70;91.60;;;;;;5075688;28;20067;-47
2021/07/05 01:49:18;;;;;;;6.88;5.65;;;14.80;91.40;;;;;;5093999;28;20070;-48
2021/07/05 01:51:44;;;;;;;5.90;5.25;;;14.80;91.50;;;;;;5093729;28;20486;-48
2021/07/05 01:54:13;;;;;;;8.15;5.35;;;14.70;91.60;;;;;;5093646;28;20024;-47
2021/07/05 01:56:39;;;;;;;8.48;5.03;;;14.70;91.60;;;;;;5093688;28;20332;-47
2021/07/05 01:59:05;;;;;;;8.20;5.78;;;14.70;91.60;;;;;;5093881;28;20039;-48
2021/07/05 02:01:30;;;;;;;6.93;5.22;;;14.70;91.50;;;;;;5093538;28;20034;-48
2021/07/05 02:03:57;;;;;;;7.72;5.38;;;14.60;91.60;;;;;;5093700;28;20020;-47
2021/07/05 02:06:22;;;;;;;9.93;6.53;;;14.70;91.40;;;;;;5093755;28;20066;-48
2021/07/05 02:08:48;;;;;;;8.13;5.68;;;14.60;91.60;;;;;;5093361;28;20025;-47
2021/07/05 02:11:14;;;;;;;9.73;5.40;;;14.60;91.70;;;;;;5075715;28;20024;-49
2021/07/05 02:13:39;;;;;;;7.18;6.10;;;14.50;91.70;;;;;;5058616;28;20024;-48
2021/07/05 02:16:06;;;;;;;9.48;5.07;;;14.60;91.60;;;;;;5093358;28;20031;-47
2021/07/05 02:18:32;;;;;;;8.57;4.82;;;14.60;91.60;;;;;;5093685;28;20028;-46
2021/07/05 02:21:02;;;;;;;8.60;4.63;;;14.50;91.70;;;;;;5093157;28;20055;-46
2021/07/05 02:23:29;;;;;;;5.15;4.63;;;14.60;91.60;;;;;;5093707;28;20070;-48
2021/07/05 02:25:54;;;;;;;5.97;4.55;;;14.70;91.30;;;;;;5093455;28;20036;-48
2021/07/05 02:28:26;;;;;;;10.95;5.35;;;14.60;91.30;;;;;;5093601;28;20413;-47
2021/07/05 02:30:53;;;;;;;5.65;4.50;;;14.60;91.30;;;;;;5093499;28;20059;-46
2021/07/05 02:33:21;;;;;;;8.60;5.13;;;14.60;91.50;;;;;;5093199;28;20456;-47
2021/07/05 02:35:47;;;;;;;6.47;4.57;;;14.50;91.70;;;;;;5093043;28;20048;-48
2021/07/05 02:38:13;;;;;;;7.15;4.30;;;14.50;91.70;;;;;;5093298;28;20028;-47
2021/07/05 02:40:44;;;;;;;8.32;4.25;;;14.50;91.70;;;;;;5093479;28;20372;-47
2021/07/05 02:43:10;;;;;;;7.90;4.60;;;14.50;91.70;;;;;;5093533;28;20478;-49
2021/07/05 02:45:37;;;;;;;6.05;4.50;;;14.50;91.60;;;;;;5093076;28;20396;-46
2021/07/05 02:48:08;;;;;;;7.28;4.57;;;14.50;91.70;;;;;;5093449;28;20020;-46
2021/07/05 02:50:35;;;;;;;9.68;4.45;;;14.50;91.90;;;;;;5093599;28;20116;-47
2021/07/05 02:53:05;;;;;;;6.03;3.97;;;14.60;91.70;;;;;;5093222;28;20519;-47
2021/07/05 02:55:31;;;;;;;4.38;3.47;;;14.50;91.60;;;;;;5093316;28;20024;-47
2021/07/05 02:57:58;;;;;;;5.72;4.30;;;14.60;91.70;;;;;;5092900;28;20050;-47
2021/07/05 03:00:25;;;;;;;5.07;3.70;;;14.60;91.70;;;;;;5092814;28;20039;-48
2021/07/05 03:02:52;;;;;;;4.85;3.90;;;14.60;91.70;;;;;;5093202;28;20134;-49
2021/07/05 03:05:20;;;;;;;4.13;3.70;;;14.60;91.60;;;;;;5092937;28;20387;-46
2021/07/05 03:07:46;;;;;;;4.13;3.72;;;14.70;91.50;;;;;;5093221;28;20074;-46
2021/07/05 03:10:14;;;;;;;6.65;3.63;;;14.70;91.50;;;;;;5092950;28;20387;-47
2021/07/05 03:12:40;;;;;;;5.68;3.58;;;14.70;91.50;;;;;;5074906;28;20062;-46
2021/07/05 03:15:12;;;;;;;7.72;3.50;;;14.80;91.50;;;;;;5092813;28;20091;-47
2021/07/05 03:17:38;;;;;;;4.28;3.22;;;14.70;91.50;;;;;;5092894;28;20035;-49
2021/07/05 03:20:07;;;;;;;6.07;3.70;;;14.70;91.50;;;;;;5095792;28;20223;-47
2021/07/05 03:22:33;;;;;;;4.78;4.20;;;14.70;91.40;;;;;;5096766;28;20020;-46
2021/07/05 03:24:59;;;;;;;5.47;3.17;;;14.80;91.50;;;;;;5097091;28;20118;-46
2021/07/05 03:27:27;;;;;;;4.05;3.33;;;14.80;91.30;;;;;;5096617;28;20024;-46
2021/07/05 03:29:53;;;;;;;5.57;3.70;;;14.70;91.40;;;;;;5096654;28;20024;-47
2021/07/05 03:32:19;;;;;;;8.18;4.68;;;14.70;91.40;;;;;;5096356;28;20510;-47
2021/07/05 03:34:45;;;;;;;6.55;3.65;;;14.80;91.40;;;;;;5096203;28;20044;-46
2021/07/05 03:37:10;;;;;;;7.45;4.30;;;14.80;91.30;;;;;;5096205;28;20028;-49
2021/07/05 03:39:37;;;;;;;5.88;3.20;;;14.80;91.20;;;;;;5096391;28;20048;-47
2021/07/05 03:42:03;;;;;;;4.05;3.50;;;14.80;91.10;;;;;;5096142;28;20492;-49
2021/07/05 03:44:29;;;;;;;7.35;4.32;;;14.80;91.00;;;;;;5096017;28;20031;-47
2021/07/05 03:46:55;;;;;;;7.68;3.50;;;14.90;91.00;;;;;;5077787;28;20028;-46
2021/07/05 03:49:21;;;;;;;6.88;3.53;;;14.90;90.70;;;;;;5096290;28;20099;-48
2021/07/05 03:51:46;;;;;;;5.97;3.60;;;15.00;90.80;;;;;;5096150;28;20017;-45
2021/07/05 03:54:12;;;;;;;4.10;2.95;;;15.10;90.60;;;;;;5096107;28;20032;-47
2021/07/05 03:56:38;;;;;;;5.25;2.88;;;15.20;90.40;;;;;;5096006;28;20059;-49
2021/07/05 03:59:04;;;;;;;4.20;3.03;;;15.40;89.90;;;;;;5077782;28;20043;-48
2021/07/05 04:01:30;;;;;;;3.13;2.83;;;15.50;89.40;;;;;;5095661;28;20463;-50
2021/07/05 04:03:56;;;;;;;3.78;3.17;;;15.70;89.00;;;;;;5095824;28;20028;-49
2021/07/05 04:06:21;;;;;;;3.97;2.75;;;16.10;87.60;;;;;;5095706;28;20020;-46
2021/07/05 04:08:47;;;;;;;3.75;2.42;;;16.30;87.20;;;;;;5077889;28;20047;-46
2021/07/05 04:11:13;;;;;;;4.07;1.95;;;16.40;86.30;;;;;;5095493;28;20024;-47
2021/07/05 04:13:38;;;;;;;5.05;2.38;;;16.50;86.10;;;;;;5095484;28;20069;-47
2021/07/05 04:16:04;;;;;;;3.35;1.88;;;16.30;87.10;;;;;;5096287;28;20360;-49
2021/07/05 04:18:30;;;;;;;3.60;2.17;;;16.30;88.00;;;;;;5095466;28;20032;-47
2021/07/05 04:20:56;;;;;;;1.95;1.83;;;16.20;88.00;;;;;;5095284;28;20031;-48
2021/07/05 04:23:24;;;;;;;8.40;3.03;;;16.50;86.60;;;;;;5095634;28;20105;-48
2021/07/05 04:25:50;;;;;;;8.10;2.70;;;16.80;86.20;;;;;;5095397;28;20051;-46
2021/07/05 04:28:16;;;;;;;5.03;2.30;;;16.70;86.00;;;;;;5095318;28;20449;-52
2021/07/05 04:30:42;;;;;;;2.83;2.22;;;16.70;86.60;;;;;;5094379;28;20092;-48
2021/07/05 04:33:08;;;;;;;3.13;2.22;;;16.70;86.40;;;;;;5095144;28;20103;-47
2021/07/05 04:35:34;;;;;;;5.55;2.47;;;16.70;86.60;;;;;;5076856;28;20055;-47
2021/07/05 04:38:00;;;;;;;2.55;2.35;;;16.80;86.20;;;;;;5095379;28;20388;-47
2021/07/05 04:40:33;;;;;;;5.20;2.50;;;16.70;86.70;;;;;;5094926;28;20032;-47
2021/07/05 04:42:59;;;;;;;2.97;2.42;;;16.40;87.30;;;;;;5094962;28;20067;-46
2021/07/05 04:45:28;;;;;;;4.70;2.60;;;16.50;87.50;;;;;;5094748;28;20375;-48
2021/07/05 04:47:59;;;;;;;5.72;2.63;;;16.50;87.30;;;;;;5095132;28;20434;-46
2021/07/05 04:50:26;;;;;;;4.95;3.35;;;16.50;87.20;;;;;;5076358;28;20494;-46
2021/07/05 04:52:51;;;;;;;2.95;2.65;;;16.40;88.30;;;;;;5094539;28;20020;-47
2021/07/05 04:55:19;;;;;;;4.07;3.05;;;16.60;87.60;;;;;;5094363;28;20043;-48
2021/07/05 04:57:46;;;;;;;7.38;2.65;;;16.40;87.80;;;;;;5094291;28;20024;-46
2021/07/05 05:00:17;;;;;;;9.75;3.33;;;16.50;88.10;;;;;;5094356;28;20020;-46
2021/07/05 05:02:43;;;;;;;6.75;4.10;;;16.60;87.90;;;;;;5094463;28;20027;-47
2021/07/05 05:05:09;;;;;;;7.60;6.00;;;16.40;88.30;;;;;;5094383;28;20410;-47
2021/07/05 05:07:35;;;;;;;8.32;6.70;;;16.00;91.00;;;;;;5094049;28;20082;-47
2021/07/05 05:10:06;;;;;;;10.88;8.60;;;15.80;91.40;;;;;;5094406;28;20467;-48
2021/07/05 05:12:32;;;;;;;14.45;9.73;;;15.80;92.10;;;;;;5075834;28;20027;-49
2021/07/05 05:14:58;;;;;;;13.98;10.02;;;15.90;91.80;;;;;;5094418;28;20028;-48
2021/07/05 05:17:24;;;;;;;16.75;10.48;;;15.80;92.30;;;;;;5094412;28;20258;-48
2021/07/05 05:19:50;;;;;;;16.42;10.80;;;15.80;92.40;;;;;;5094006;28;20024;-47
2021/07/05 05:22:16;;;;;;;17.02;11.82;;;15.80;92.60;;;;;;5094096;28;20065;-46
2021/07/05 05:24:42;;;;;;;17.13;12.85;;;15.80;93.00;;;;;;5094029;28;20038;-46
2021/07/05 05:27:08;;;;;;;16.63;12.85;;;15.70;93.30;;;;;;5094034;28;20028;-46
2021/07/05 05:29:35;;;;;;;15.70;11.65;;;15.50;93.60;;;;;;5093712;28;20488;-47
2021/07/05 05:32:01;;;;;;;12.25;9.80;;;15.50;93.70;;;;;;5093597;28;20024;-48
2021/07/05 05:34:27;;;;;;;9.18;6.63;;;15.40;93.50;;;;;;5093647;28;20059;-49
2021/07/05 05:36:52;;;;;;;8.18;5.65;;;15.30;93.10;;;;;;5093880;28;20024;-54
2021/07/05 05:39:18;;;;;;;8.35;6.47;;;15.30;92.60;;;;;;5075521;28;20112;-47
2021/07/05 05:41:44;;;;;;;12.63;8.27;;;15.30;92.80;;;;;;5093489;28;20028;-48
2021/07/05 05:44:10;;;;;;;8.50;6.63;;;15.30;92.70;;;;;;5093436;28;20039;-48
2021/07/05 05:46:35;;;;;;;14.88;6.50;;;15.30;92.70;;;;;;5093393;28;20468;-48
2021/07/05 05:49:02;;;;;;;8.43;6.13;;;15.30;92.70;;;;;;5093708;28;20020;-52
2021/07/05 05:51:33;;;;;;;6.75;4.10;;;15.20;92.60;;;;;;5093891;28;20020;-46
2021/07/05 05:54:04;;;;;;;4.72;2.63;;;14.90;91.00;;;;;;5093873;28;20081;-48
2021/07/05 05:56:32;;;;;;;3.63;2.53;;;14.80;89.80;;;;;;5075677;28;20410;-49
2021/07/05 05:59:06;;;;;;;6.72;3.20;;;14.80;89.40;;;;;;5075028;28;20107;-45
2021/07/05 06:01:33;;;;;;;4.13;2.70;;;14.70;90.50;;;;;;5093757;28;20024;-47
2021/07/05 06:03:58;;;;;;;4.57;2.80;;;14.70;90.80;;;;;;5093342;28;20081;-47
2021/07/05 06:06:24;;;;;;;2.55;2.03;;;14.70;90.80;;;;;;5093364;28;20020;-50
2021/07/05 06:08:51;;;;;;;8.13;2.95;;;14.60;89.60;;;;;;5094536;28;20334;-50
2021/07/05 06:11:16;;;;;;;3.30;2.50;;;14.40;90.90;;;;;;5093275;28;20102;-48
2021/07/05 06:13:42;;;;;;;3.40;3.08;;;14.40;91.70;;;;;;5093352;28;20476;-47
2021/07/05 06:16:08;;;;;;;4.97;3.33;;;14.50;91.70;;;;;;5093290;28;20499;-48
2021/07/05 06:18:34;;;;;;;6.00;3.50;;;14.60;91.30;;;;;;5093419;28;20035;-47
2021/07/05 06:21:00;;;;;;;6.15;3.30;;;14.50;91.20;;;;;;5092970;28;20035;-48
2021/07/05 06:23:27;;;;;;;3.67;3.38;;;14.50;91.40;;;;;;5093770;28;20464;-47
2021/07/05 06:25:54;;;;;;;3.80;2.92;;;14.60;91.60;;;;;;5093211;28;20117;-50
2021/07/05 06:28:22;;;;;;;4.63;3.70;;;14.70;91.20;;;;;;5093294;28;20027;-48
2021/07/05 06:30:49;;;;;;;8.45;3.53;;;14.60;91.20;;;;;;5093331;28;20028;-47
2021/07/05 06:33:15;;;;;;;5.00;4.03;;;14.40;91.70;;;;;;5093461;28;20028;-47
2021/07/05 06:35:42;;;;;;;4.63;4.05;;;14.60;91.80;;;;;;5092944;28;20044;-51
2021/07/05 06:38:08;;;;;;;4.80;4.28;;;14.80;91.50;;;;;;5093138;28;20021;-50
2021/07/05 06:40:34;;;;;;;4.60;4.05;;;15.00;90.40;;;;;;5074835;28;20421;-49
2021/07/05 06:43:00;;;;;;;5.80;4.60;;;14.90;90.10;;;;;;5074905;28;20024;-48
2021/07/05 06:45:26;;;;;;;6.93;5.45;;;15.00;91.30;;;;;;5093092;28;20471;-49
2021/07/05 06:47:52;;;;;;;4.47;3.63;;;15.10;90.90;;;;;;5074623;28;20441;-47
2021/07/05 06:50:18;;;;;;;5.07;4.50;;;15.00;91.30;;;;;;5093113;28;20016;-47
2021/07/05 06:52:44;;;;;;;8.48;5.35;;;14.90;91.50;;;;;;5092676;28;20380;-50
2021/07/05 06:55:12;;;;;;;10.57;6.63;;;14.80;91.30;;;;;;5095920;28;20027;-51
2021/07/05 06:57:39;;;;;;;9.45;7.22;;;14.80;91.90;;;;;;5078420;28;20031;-48
2021/07/05 07:00:08;;;;;;;11.02;8.43;;;15.00;91.70;;;;;;5096909;28;20502;-47
2021/07/05 07:02:35;;;;;;;11.40;9.02;;;15.00;92.10;;;;;;5078270;28;20024;-47
2021/07/05 07:05:01;;;;;;;14.27;10.00;;;15.00;91.70;;;;;;5096262;28;20020;-49
2021/07/05 07:07:27;;;;;;;14.32;9.10;;;15.00;92.40;;;;;;5096354;28;20016;-47
2021/07/05 07:09:52;;;;;;;20.85;11.00;;;15.10;91.50;;;;;;5096753;28;20150;-50
2021/07/05 07:12:18;;;;;;;18.50;10.95;;;15.00;91.50;;;;;;5078201;28;20387;-48
2021/07/05 07:14:44;;;;;;;19.20;11.27;;;15.30;91.30;;;;;;5096251;28;20448;-51
2021/07/05 07:20:01;;;;;;;20.75;11.20;;;15.20;91.10;;;;;;5057989;28;20043;-47
2021/07/05 07:22:27;;;;;;;22.40;11.73;;;15.30;90.80;;;;;;5096721;28;20020;-47
2021/07/05 07:24:53;;;;;;;19.10;11.35;;;15.40;89.70;;;;;;5095966;28;20031;-48
2021/07/05 07:27:19;;;;;;;20.63;10.15;;;15.50;89.40;;;;;;5095903;28;20020;-48
2021/07/05 07:29:44;;;;;;;18.83;9.70;;;15.50;90.00;;;;;;5077715;28;20038;-47
2021/07/05 07:32:10;;;;;;;15.07;7.53;;;15.70;89.80;;;;;;5096098;28;20044;-48
2021/07/05 07:34:36;;;;;;;17.00;8.18;;;15.70;87.60;;;;;;5095605;28;20144;-46
2021/07/05 07:37:05;;;;;;;17.25;9.18;;;15.80;88.40;;;;;;5096201;28;20077;-46
2021/07/05 07:39:38;;;;;;;14.02;6.65;;;15.60;88.70;;;;;;5096209;28;20024;-50
2021/07/05 07:42:05;;;;;;;13.45;5.95;;;15.70;87.70;;;;;;5095954;28;20032;-47
2021/07/05 07:44:30;;;;;;;9.13;5.93;;;15.90;87.80;;;;;;5095657;28;20501;-52
2021/07/05 07:46:56;;;;;;;11.10;5.78;;;16.10;86.80;;;;;;5095398;28;20024;-48
2021/07/05 07:49:22;;;;;;;14.85;5.53;;;16.10;87.20;;;;;;5095868;28;20023;-48
2021/07/05 07:51:48;;;;;;;10.90;5.18;;;16.20;86.40;;;;;;5095495;28;20020;-46
2021/07/05 07:54:14;;;;;;;11.98;5.63;;;16.10;86.30;;;;;;5095925;28;20024;-47
2021/07/05 07:56:39;;;;;;;9.38;4.35;;;16.20;86.10;;;;;;5095647;28;20533;-48
2021/07/05 07:59:05;;;;;;;10.75;5.70;;;15.90;87.40;;;;;;5077382;28;20024;-47
2021/07/05 08:01:31;;;;;;;13.65;5.05;;;16.10;87.20;;;;;;5095886;28;20031;-47
2021/07/05 08:03:56;;;;;;;9.65;5.05;;;16.10;88.20;;;;;;5095676;28;20020;-51
2021/07/05 08:06:23;;;;;;;8.55;4.60;;;16.10;87.60;;;;;;5076679;28;20028;-51
2021/07/05 08:08:52;;;;;;;15.68;6.80;;;16.30;87.00;;;;;;5095247;28;20045;-48
2021/07/05 08:11:18;;;;;;;14.05;7.00;;;16.20;87.60;;;;;;5095157;28;20012;-48
2021/07/05 08:13:44;;;;;;;9.55;5.22;;;16.30;86.90;;;;;;5077820;28;20047;-47
2021/07/05 08:16:10;;;;;;;10.15;5.05;;;16.60;85.60;;;;;;5095521;28;20028;-47
2021/07/05 08:18:36;;;;;;;8.18;4.88;;;16.70;84.50;;;;;;5095323;28;20076;-48
2021/07/05 08:21:03;;;;;;;7.07;4.80;;;16.90;83.70;;;;;;5094864;28;20024;-53
2021/07/05 08:23:30;;;;;;;9.43;5.25;;;17.10;83.70;;;;;;5095270;28;20055;-49
2021/07/05 08:25:56;;;;;;;14.20;6.80;;;17.10;83.40;;;;;;5095148;28;20055;-49
2021/07/05 08:28:24;;;;;;;15.10;6.28;;;17.20;84.20;;;;;;5095223;28;20036;-49
2021/07/05 08:30:50;;;;;;;12.90;6.47;;;17.30;82.20;;;;;;5094660;28;20020;-46
2021/07/05 08:33:15;;;;;;;8.52;5.53;;;17.10;83.60;;;;;;5094648;28;20115;-47
2021/07/05 08:35:41;;;;;;;12.52;7.07;;;17.30;83.00;;;;;;5094104;28;20124;-49
2021/07/05 08:38:07;;;;;;;7.88;5.15;;;17.20;83.80;;;;;;5094164;28;20371;-49
2021/07/05 08:40:33;;;;;;;10.70;5.53;;;17.80;82.50;;;;;;5094452;28;20352;-47
2021/07/05 08:42:58;;;;;;;9.27;4.95;;;17.80;81.60;;;;;;5095526;28;20035;-47
2021/07/05 08:45:24;;;;;;;10.75;4.75;;;18.00;80.30;;;;;;5094367;28;20081;-50
2021/07/05 08:47:53;;;;;;;12.07;4.18;;;18.90;76.70;;;;;;5094178;28;20028;-48
2021/07/05 08:50:21;;;;;;;11.27;4.82;;;18.80;75.80;;;;;;5093961;28;20510;-48
2021/07/05 08:52:47;;;;;;;8.77;4.25;;;18.60;78.90;;;;;;5094421;28;20016;-63
2021/07/05 08:55:16;;;;;;;7.65;3.95;;;19.00;76.10;;;;;;5093502;28;20028;-48
2021/07/05 08:57:42;;;;;;;11.13;4.35;;;19.30;74.50;;;;;;5093932;28;20024;-50
2021/07/05 09:00:20;;;;;;;8.00;4.50;;;18.60;77.60;;;;;;5094153;28;20475;-50
2021/07/05 09:02:46;;;;;;;5.97;3.67;;;19.10;75.00;;;;;;5095954;28;20376;-53
2021/07/05 09:05:13;;;;;;;8.10;4.35;;;19.30;74.60;;;;;;5095243;28;20153;-48
2021/07/05 09:07:57;;;;;;;8.77;4.40;;;18.80;75.50;;;;;;5094296;28;20028;-50
2021/07/05 09:10:23;;;;;;;10.32;4.93;;;18.60;75.90;;;;;;5094415;28;20028;-52
2021/07/05 09:13:13;;;;;;;9.40;4.15;;;18.50;75.60;;;;;;5093877;28;20130;-47
2021/07/05 09:15:42;;;;;;;7.43;3.50;;;19.10;74.30;;;;;;5094163;28;20021;-52
2021/07/05 09:18:44;;;;;;;7.05;4.18;;;19.30;73.00;;;;;;5075760;28;20055;-52
2021/07/05 09:21:20;;;;;;;5.45;3.30;;;19.80;71.90;;;;;;5094229;28;20057;-54
2021/07/05 09:23:55;;;;;;;11.20;5.50;;;19.90;69.00;;;;;;5094080;28;20107;-48
2021/07/05 09:26:43;;;;;;;10.88;4.63;;;19.90;69.70;;;;;;5094060;28;20077;-51
2021/07/05 09:29:14;;;;;;;11.35;5.47;;;19.60;69.40;;;;;;5075335;28;20046;-49
2021/07/05 09:31:43;;;;;;;8.27;4.05;;;19.30;71.30;;;;;;5093427;28;20069;-49
2021/07/05 09:34:33;;;;;;;8.15;3.97;;;19.30;70.40;;;;;;5075269;28;20043;-54
2021/07/05 09:37:24;;;;;;;7.63;4.35;;;19.20;71.50;;;;;;5093487;28;20020;-48
2021/07/05 09:40:02;;;;;;;7.65;4.80;;;19.30;68.90;;;;;;5093878;28;20033;-50
2021/07/05 09:42:38;;;;;;;8.15;4.22;;;19.20;70.30;;;;;;5074934;28;20031;-49
2021/07/05 09:45:09;;;;;;;8.15;4.45;;;19.00;70.60;;;;;;5093383;28;20127;-47
2021/07/05 09:47:35;;;;;;;8.63;3.60;;;19.00;71.40;;;;;;5093504;28;20425;-47
2021/07/05 09:50:21;;;;;;;7.15;3.83;;;19.00;70.80;;;;;;5092998;28;20077;-51
2021/07/05 09:52:47;;;;;;;14.32;5.57;;;19.30;71.60;;;;;;5092880;28;20077;-48
2021/07/05 09:55:15;;;;;;;7.57;3.85;;;19.00;71.90;;;;;;5093312;28;20095;-50
2021/07/05 09:57:46;;;;;;;8.55;4.07;;;18.80;73.60;;;;;;5092827;28;20110;-36
2021/07/05 10:00:20;;;;;;;6.65;3.75;;;18.90;72.60;;;;;;5074384;28;20047;-37
2021/07/05 10:02:59;;;;;;;10.35;3.83;;;18.90;71.70;;;;;;5092897;28;20020;-39
2021/07/05 10:05:30;;;;;;;10.73;4.43;;;18.80;72.50;;;;;;5074867;28;20032;-39
2021/07/05 10:08:06;;;;;;;8.77;3.85;;;18.80;73.00;;;;;;5093423;28;20044;-37
2021/07/05 10:10:33;;;;;;;12.50;4.50;;;18.90;71.80;;;;;;5093228;28;20418;-37
2021/07/05 10:13:01;;;;;;;4.47;3.33;;;18.70;74.00;;;;;;5092704;28;20020;-36
2021/07/05 10:15:28;;;;;;;8.90;3.53;;;18.80;74.40;;;;;;5075205;28;20066;-38
2021/07/05 10:17:55;;;;;;;29.67;18.58;;;18.90;72.40;;;;;;5093058;28;20124;-38
2021/07/05 10:20:39;;;;;;;9.25;3.75;;;19.30;71.20;;;;;;5092975;28;20024;-37
2021/07/05 10:23:08;;;;;;;8.25;4.07;;;19.40;70.00;;;;;;5092811;28;20036;-37
2021/07/05 10:25:36;;;;;;;10.05;3.50;;;19.50;70.30;;;;;;5092532;28;20016;-38
2021/07/05 10:28:03;;;;;;;11.63;3.75;;;19.80;69.30;;;;;;5093112;28;20020;-37
2021/07/05 10:30:29;;;;;;;18.30;3.42;;;20.10;66.80;;;;;;5096473;28;20085;-36
2021/07/05 10:32:56;;;;;;;7.68;3.58;;;20.30;66.10;;;;;;5096693;28;20043;-37
2021/07/05 10:35:25;;;;;;;7.18;4.35;;;20.60;65.90;;;;;;5097458;28;20048;-39
2021/07/05 10:38:13;;;;;;;5.90;3.10;;;21.10;64.00;;;;;;5098287;28;20031;-37
2021/07/05 10:40:47;;;;;;;5.88;2.78;;;20.50;65.50;;;;;;5078646;28;20107;-37
2021/07/05 10:43:18;;;;;;;10.05;2.75;;;20.50;66.00;;;;;;5097020;28;20031;-38
2021/07/05 10:45:50;;;;;;;10.18;2.75;;;20.30;67.10;;;;;;5096457;28;20032;-38
2021/07/05 10:48:41;;;;;;;6.18;3.97;;;20.40;67.00;;;;;;5097012;28;20016;-37
2021/07/05 10:51:07;;;;;;;;;;;20.10;69.00;;;;;;5097523;28;20039;-36
2021/07/05 10:53:33;;;;;;;7.18;2.85;;;19.80;68.70;;;;;;5097082;28;19908;-38
2021/07/05 10:56:01;;;;;;;6.45;2.58;;;20.00;67.50;;;;;;5096920;28;20477;-38
2021/07/05 10:58:31;;;;;;;5.30;2.35;;;19.70;69.70;;;;;;5096919;28;20168;-37
2021/07/05 11:01:03;;;;;;;7.07;3.03;;;19.30;69.30;;;;;;5096499;28;20028;-37
2021/07/05 11:03:38;;;;;;;6.80;2.28;;;19.80;67.70;;;;;;5096205;28;20024;-38
2021/07/05 11:06:28;;;;;;;6.05;2.53;;;20.20;65.80;;;;;;5077598;28;20383;-36
2021/07/05 11:08:54;;;;;;;6.80;4.28;;;20.10;64.50;;;;;;5064754;28;20114;-36
2021/07/05 11:11:25;;;;;;;8.27;3.58;;;19.80;66.20;;;;;;5096095;28;20085;-37
2021/07/05 11:14:16;;;;;;;6.50;2.83;;;20.00;66.20;;;;;;5096312;28;20372;-37
2021/07/05 11:17:18;;;;;;;9.30;3.22;;;19.80;65.60;;;;;;5096017;28;20031;-37
2021/07/05 11:19:47;;;;;;;7.70;2.67;;;19.50;67.20;;;;;;5091769;28;20044;-38
2021/07/05 11:22:25;;;;;;;10.57;3.42;;;20.30;64.10;;;;;;5096038;28;20494;-37
2021/07/05 11:24:52;;;;;;;6.47;2.22;;;20.30;63.30;;;;;;5096016;28;20073;-37
2021/07/05 11:27:29;;;;;;;5.20;2.30;;;20.60;62.80;;;;;;5096281;28;20487;-37
2021/07/05 11:30:09;;;;;;;6.03;2.30;;;21.30;60.50;;;;;;5095754;28;20031;-38
2021/07/05 11:32:38;;;;;;;7.43;2.80;;;21.70;59.50;;;;;;5095914;28;20472;-38
2021/07/05 11:35:24;;;;;;;8.38;2.72;;;21.20;60.60;;;;;;5095810;28;20044;-37
2021/07/05 11:37:55;;;;;;;4.85;2.53;;;21.40;60.40;;;;;;5096233;28;20067;-38
2021/07/05 11:40:58;;;;;;;8.13;2.10;;;21.50;60.40;;;;;;5077719;28;20433;-38
2021/07/05 11:43:58;;;;;;;5.00;2.40;;;22.60;56.20;;;;;;5096130;28;20058;-37
2021/07/05 11:46:27;;;;;;;5.65;2.83;;;22.80;56.50;;;;;;5077683;28;20200;-38
2021/07/05 11:48:57;;;;;;;7.53;2.30;;;22.80;57.30;;;;;;5096027;28;20016;-38
2021/07/05 11:51:39;;;;;;;4.70;2.40;;;22.20;58.20;;;;;;5096092;28;20115;-37
2021/07/05 11:54:16;;;;;;;7.00;3.55;;;21.30;60.50;;;;;;5096139;28;20035;-36
2021/07/05 11:56:46;;;;;;;3.55;2.47;;;21.80;60.00;;;;;;5095812;28;20103;-38
2021/07/05 11:59:33;;;;;;;9.60;2.42;;;22.70;57.60;;;;;;5095847;28;20016;-37
2021/07/05 12:02:02;;;;;;;6.10;2.63;;;22.90;56.80;;;;;;5095087;28;20107;-36
2021/07/05 12:04:39;;;;;;;6.13;2.78;;;22.80;55.80;;;;;;5077416;28;20023;-37
2021/07/05 12:07:08;;;;;;;5.78;2.60;;;22.60;55.60;;;;;;5095289;28;20435;-37
2021/07/05 12:09:35;;;;;;;4.40;2.08;;;21.30;60.70;;;;;;5095071;28;20107;-36
2021/07/05 12:12:15;;;;;;;6.72;2.75;;;22.50;56.50;;;;;;5095283;28;20012;-37
2021/07/05 12:14:41;;;;;;;;;;;22.50;57.10;;;;;;5095504;28;20031;-36
2021/07/05 12:17:08;;;;;;;5.55;2.65;;;21.80;57.70;;;;;;5095180;28;19904;-38
2021/07/05 12:19:37;;;;;;;2.97;2.20;;;21.90;56.60;;;;;;5095183;28;20039;-38
2021/07/05 12:22:10;;;;;;;3.75;2.22;;;21.40;58.50;;;;;;5094555;28;20032;-38
2021/07/05 12:24:42;;;;;;;4.55;2.28;;;21.30;58.50;;;;;;5094513;28;20060;-37
2021/07/05 12:27:11;;;;;;;4.22;2.20;;;20.90;59.20;;;;;;5096308;28;20031;-38
2021/07/05 12:29:42;;;;;;;5.77;2.50;;;21.10;60.20;;;;;;5076292;28;20111;-38
2021/07/05 12:32:17;;;;;;;6.03;2.75;;;21.10;59.10;;;;;;5094690;28;20016;-37
2021/07/05 12:34:56;;;;;;;6.95;4.05;;;21.30;58.60;;;;;;5094703;28;20074;-38
2021/07/05 12:37:31;;;;;;;5.65;2.45;;;21.00;58.90;;;;;;5094641;28;20028;-36
2021/07/05 12:40:06;;;;;;;5.53;1.90;;;21.30;56.70;;;;;;5076588;28;20110;-37
2021/07/05 12:42:36;;;;;;;3.70;2.28;;;21.10;58.70;;;;;;5094331;28;20031;-36
2021/07/05 12:45:07;;;;;;;4.38;2.30;;;21.10;58.70;;;;;;5094325;28;20103;-38
2021/07/05 12:47:42;;;;;;;;;;;21.30;57.70;;;;;;5094625;28;20031;-37
2021/07/05 12:50:08;;;;;;;4.95;2.50;;;21.60;58.30;;;;;;5095166;28;20407;-40
2021/07/05 12:52:34;;;;;;;5.32;2.17;;;21.80;56.80;;;;;;5093563;28;20051;-38
2021/07/05 12:55:16;;;;;;;5.53;2.50;;;22.10;55.00;;;;;;5094127;28;20020;-37
2021/07/05 12:57:53;;;;;;;36.50;21.17;;;22.20;54.60;;;;;;5093769;28;20032;-38